createdAt,value
2018-11-25T00:02:04.806Z,27.97
2018-11-25T00:04:32.239Z,27.37
2018-11-25T00:06:59.658Z,25.17
2018-11-25T00:09:27.079Z,27.32
2018-11-25T00:11:54.506Z,24.53
2018-11-25T00:14:21.939Z,26.73
2018-11-25T00:16:49.374Z,21.47
2018-11-25T00:19:16.801Z,20.90
2018-11-25T00:21:44.227Z,21.03
2018-11-25T00:24:11.663Z,22.25
2018-11-25T00:26:39.077Z,19.47
2018-11-25T00:29:06.510Z,19.87
2018-11-25T00:31:33.947Z,19.73
2018-11-25T00:34:01.378Z,17.57
2018-11-25T00:36:28.799Z,21.57
2018-11-25T00:38:56.225Z,19.23
2018-11-25T00:41:23.647Z,21.80
2018-11-25T00:43:51.078Z,20.02
2018-11-25T00:46:18.506Z,24.67
2018-11-25T00:48:45.944Z,21.05
2018-11-25T00:51:13.363Z,24.77
2018-11-25T00:53:40.802Z,26.00
2018-11-25T00:56:08.214Z,23.27
2018-11-25T00:58:35.652Z,21.62
2018-11-25T01:01:03.075Z,25.93
2018-11-25T01:03:30.501Z,26.05
2018-11-25T01:05:57.950Z,27.27
2018-11-25T01:08:25.395Z,21.17
2018-11-25T01:10:52.819Z,24.03
2018-11-25T01:13:20.372Z,26.63
2018-11-25T01:15:47.797Z,23.43
2018-11-25T01:18:15.250Z,26.43
2018-11-25T01:20:42.685Z,26.68
2018-11-25T01:23:10.117Z,24.33
2018-11-25T01:25:37.549Z,22.73
2018-11-25T01:28:04.973Z,22.27
2018-11-25T01:30:32.486Z,24.63
2018-11-25T01:32:59.920Z,24.13
2018-11-25T01:35:27.364Z,23.93
2018-11-25T01:37:54.798Z,23.57
2018-11-25T01:40:22.218Z,23.60
2018-11-25T01:42:49.649Z,24.57
2018-11-25T01:45:17.112Z,26.30
2018-11-25T01:47:44.610Z,27.40
2018-11-25T01:50:12.032Z,26.33
2018-11-25T01:52:39.447Z,24.03
2018-11-25T01:55:06.871Z,26.23
2018-11-25T01:57:34.302Z,32.63
2018-11-25T02:00:01.738Z,24.98
2018-11-25T02:02:29.155Z,29.10
2018-11-25T02:04:56.570Z,29.50
2018-11-25T02:07:23.982Z,25.97
2018-11-25T02:09:51.403Z,27.02
2018-11-25T02:12:18.825Z,28.77
2018-11-25T02:14:46.247Z,25.20
2018-11-25T02:17:13.678Z,25.43
2018-11-25T02:19:41.097Z,27.02
2018-11-25T02:22:08.526Z,26.67
2018-11-25T02:24:35.938Z,28.32
2018-11-25T02:27:03.357Z,29.33
2018-11-25T02:29:30.781Z,25.65
2018-11-25T02:31:58.207Z,23.80
2018-11-25T02:34:25.636Z,25.20
2018-11-25T02:36:53.062Z,26.60
2018-11-25T02:39:20.485Z,27.65
2018-11-25T02:41:47.917Z,26.20
2018-11-25T02:44:15.333Z,23.95
2018-11-25T02:46:42.760Z,24.23
2018-11-25T02:49:10.178Z,26.75
2018-11-25T02:51:37.598Z,25.77
2018-11-25T02:54:05.024Z,25.27
2018-11-25T02:56:32.448Z,23.97
2018-11-25T02:58:59.868Z,22.22
2018-11-25T03:01:27.292Z,25.63
2018-11-25T03:03:54.712Z,25.05
2018-11-25T03:06:22.129Z,22.43
2018-11-25T03:08:49.564Z,24.98
2018-11-25T03:11:16.992Z,24.00
2018-11-25T03:13:44.422Z,25.08
2018-11-25T03:16:11.837Z,23.93
2018-11-25T03:18:39.267Z,23.05
2018-11-25T03:21:06.794Z,25.73
2018-11-25T03:23:34.211Z,23.35
2018-11-25T03:26:01.645Z,26.80
2018-11-25T03:28:29.081Z,26.85
2018-11-25T03:30:56.511Z,24.17
2018-11-25T03:33:24.039Z,27.60
2018-11-25T03:35:51.445Z,27.50
2018-11-25T03:38:18.924Z,24.53
2018-11-25T03:40:46.354Z,24.67
2018-11-25T03:43:13.774Z,25.77
2018-11-25T03:45:41.188Z,23.50
2018-11-25T03:48:08.601Z,24.63
2018-11-25T03:50:36.038Z,26.02
2018-11-25T03:53:03.454Z,23.60
2018-11-25T03:55:30.887Z,27.30
2018-11-25T03:57:58.314Z,26.17
2018-11-25T04:00:25.735Z,26.12
2018-11-25T04:02:53.163Z,29.73
2018-11-25T04:05:20.591Z,25.88
2018-11-25T04:07:48.015Z,24.30
2018-11-25T04:10:15.435Z,23.92
2018-11-25T04:12:42.863Z,24.47
2018-11-25T04:15:10.289Z,29.00
2018-11-25T04:17:37.715Z,23.83
2018-11-25T04:20:05.142Z,27.87
2018-11-25T04:22:32.573Z,26.47
2018-11-25T04:24:59.987Z,25.82
2018-11-25T04:27:27.414Z,27.67
2018-11-25T04:29:54.838Z,25.55
2018-11-25T04:32:22.260Z,23.87
2018-11-25T04:34:49.686Z,24.12
2018-11-25T04:37:17.099Z,25.53
2018-11-25T04:39:44.527Z,23.73
2018-11-25T04:42:11.952Z,22.43
2018-11-25T04:44:39.370Z,24.40
2018-11-25T04:47:06.799Z,25.33
2018-11-25T04:49:34.228Z,24.25
2018-11-25T04:52:01.644Z,27.43
2018-11-25T04:54:29.070Z,25.80
2018-11-25T04:56:56.499Z,27.37
2018-11-25T04:59:23.919Z,26.50
2018-11-25T05:01:51.342Z,24.47
2018-11-25T05:04:18.763Z,23.25
2018-11-25T05:06:46.188Z,27.70
2018-11-25T05:09:13.601Z,23.40
2018-11-25T05:11:41.041Z,25.93
2018-11-25T05:14:08.461Z,25.90
2018-11-25T05:16:35.892Z,27.90
2018-11-25T05:19:03.314Z,27.95
2018-11-25T05:21:30.752Z,27.83
2018-11-25T05:23:58.161Z,28.20
2018-11-25T05:26:25.596Z,25.00
2018-11-25T05:28:53.009Z,25.12
2018-11-25T05:31:20.447Z,27.00
2018-11-25T05:33:47.862Z,24.55
2018-11-25T05:36:15.286Z,24.20
2018-11-25T05:38:42.706Z,30.60
2018-11-25T05:41:10.136Z,26.10
2018-11-25T05:43:37.549Z,23.25
2018-11-25T05:46:04.979Z,25.60
2018-11-25T05:48:32.396Z,30.02
2018-11-25T05:50:59.826Z,28.13
2018-11-25T05:53:27.257Z,27.85
2018-11-25T05:55:54.677Z,29.00
2018-11-25T05:58:22.114Z,25.50
2018-11-25T06:00:49.547Z,25.73
2018-11-25T06:03:16.963Z,26.55
2018-11-25T06:05:44.382Z,28.97
2018-11-25T06:08:11.799Z,28.73
2018-11-25T06:10:39.226Z,25.93
2018-11-25T06:13:06.655Z,24.67
2018-11-25T06:15:34.087Z,28.97
2018-11-25T06:18:01.501Z,29.95
2018-11-25T06:20:28.934Z,24.67
2018-11-25T06:22:56.347Z,28.35
2018-11-25T06:25:23.779Z,27.50
2018-11-25T06:27:51.205Z,25.15
2018-11-25T06:30:18.640Z,29.77
2018-11-25T06:32:46.065Z,25.85
2018-11-25T06:35:13.523Z,26.03
2018-11-25T06:37:40.958Z,27.90
2018-11-25T06:40:08.371Z,25.47
2018-11-25T06:42:35.818Z,30.30
2018-11-25T06:45:03.226Z,31.97
2018-11-25T06:47:30.649Z,26.65
2018-11-25T06:49:58.071Z,27.20
2018-11-25T06:52:25.505Z,29.02
2018-11-25T06:54:52.927Z,26.20
2018-11-25T06:57:20.355Z,25.80
2018-11-25T06:59:47.766Z,28.20
2018-11-25T07:02:15.183Z,26.82
2018-11-25T07:04:42.605Z,26.77
2018-11-25T07:07:10.023Z,28.02
2018-11-25T07:09:37.438Z,27.17
2018-11-25T07:12:05.266Z,26.62
2018-11-25T07:14:32.696Z,26.07
2018-11-25T07:17:00.115Z,25.73
2018-11-25T07:19:27.550Z,28.75
2018-11-25T07:21:54.980Z,26.47
2018-11-25T07:24:22.389Z,24.25
2018-11-25T07:26:49.815Z,27.80
2018-11-25T07:29:17.286Z,27.32
2018-11-25T07:31:44.706Z,27.27
2018-11-25T07:34:12.138Z,27.80
2018-11-25T07:36:39.576Z,29.80
2018-11-25T07:39:06.998Z,31.52
2018-11-25T07:41:34.431Z,29.77
2018-11-25T07:44:01.855Z,26.75
2018-11-25T07:46:29.304Z,25.97
2018-11-25T07:48:56.727Z,30.23
2018-11-25T07:51:24.163Z,30.17
2018-11-25T07:53:51.592Z,25.15
2018-11-25T07:56:19.019Z,27.63
2018-11-25T07:58:46.434Z,29.48
2018-11-25T08:01:13.859Z,25.20
2018-11-25T08:03:41.289Z,27.00
2018-11-25T08:06:08.711Z,24.90
2018-11-25T08:08:36.138Z,28.23
2018-11-25T08:11:03.575Z,26.20
2018-11-25T08:13:30.993Z,25.70
2018-11-25T08:15:58.409Z,26.43
2018-11-25T08:18:25.842Z,28.15
2018-11-25T08:20:53.519Z,26.80
2018-11-25T08:23:20.979Z,23.40
2018-11-25T08:25:48.745Z,25.13
2018-11-25T08:28:16.176Z,25.57
2018-11-25T08:30:43.591Z,26.87
2018-11-25T08:33:11.014Z,25.77
2018-11-25T08:35:38.431Z,25.13
2018-11-25T08:38:05.867Z,29.03
2018-11-25T08:40:33.276Z,26.47
2018-11-25T08:43:00.694Z,24.67
2018-11-25T08:45:28.119Z,26.83
2018-11-25T08:47:55.632Z,26.50
2018-11-25T08:50:23.040Z,23.60
2018-11-25T08:52:50.496Z,24.02
2018-11-25T08:55:17.913Z,26.37
2018-11-25T08:57:46.280Z,26.43
2018-11-25T09:00:13.701Z,24.18
2018-11-25T09:02:41.122Z,23.83
2018-11-25T09:05:08.535Z,23.42
2018-11-25T09:07:35.970Z,22.20
2018-11-25T09:10:03.388Z,23.85
2018-11-25T09:12:30.834Z,21.53
2018-11-25T09:14:58.250Z,20.90
2018-11-25T09:17:25.754Z,21.97
2018-11-25T09:19:53.220Z,26.23
2018-11-25T09:22:20.650Z,25.47
2018-11-25T09:24:48.091Z,19.17
2018-11-25T09:27:15.518Z,26.27
2018-11-25T09:29:42.955Z,23.60
2018-11-25T09:32:10.376Z,21.37
2018-11-25T09:34:37.857Z,25.33
2018-11-25T09:37:05.282Z,23.00
2018-11-25T09:39:32.710Z,22.87
2018-11-25T09:42:00.124Z,21.87
2018-11-25T09:44:27.554Z,23.33
2018-11-25T09:46:54.986Z,20.15
2018-11-25T09:49:22.513Z,21.80
2018-11-25T09:51:49.962Z,23.35
2018-11-25T09:54:17.375Z,20.10
2018-11-25T09:56:44.814Z,21.77
2018-11-25T09:59:12.339Z,25.20
2018-11-25T10:01:39.795Z,24.30
2018-11-25T10:04:07.246Z,23.42
2018-11-25T10:06:34.654Z,22.30
2018-11-25T10:09:02.088Z,21.62
2018-11-25T10:11:30.137Z,21.73
2018-11-25T10:13:56.973Z,21.95
2018-11-25T10:16:24.393Z,20.97
2018-11-25T10:18:51.822Z,23.70
2018-11-25T10:21:19.337Z,19.67
2018-11-25T10:23:46.738Z,21.30
2018-11-25T10:26:14.174Z,21.23
2018-11-25T10:28:41.691Z,21.00
2018-11-25T10:31:09.106Z,22.80
2018-11-25T10:33:36.533Z,20.03
2018-11-25T10:36:04.625Z,17.17
2018-11-25T10:38:31.478Z,20.87
2018-11-25T10:40:58.900Z,17.98
2018-11-25T10:43:26.330Z,19.60
2018-11-25T10:45:53.808Z,21.13
2018-11-25T10:48:21.314Z,19.77
2018-11-25T10:50:51.266Z,20.40
2018-11-25T10:53:16.162Z,22.75
2018-11-25T10:55:43.578Z,18.63
2018-11-25T10:58:13.028Z,19.30
2018-11-25T11:00:45.930Z,22.80
2018-11-25T11:03:18.842Z,21.33
2018-11-25T11:05:51.695Z,20.93
2018-11-25T11:08:19.131Z,18.93
2018-11-25T11:10:46.553Z,21.30
2018-11-25T11:13:14.086Z,23.33
2018-11-25T11:15:41.539Z,21.80
2018-11-25T11:18:08.986Z,22.87
2018-11-25T11:20:36.399Z,21.87
2018-11-25T11:23:03.818Z,20.93
2018-11-25T11:25:31.268Z,23.60
2018-11-25T11:27:58.726Z,22.90
2018-11-25T11:30:26.181Z,25.00
2018-11-25T11:32:53.615Z,22.70
2018-11-25T11:35:21.098Z,22.77
2018-11-25T11:37:48.536Z,23.77
2018-11-25T11:40:15.951Z,23.73
2018-11-25T11:42:43.574Z,25.53
2018-11-25T11:45:10.996Z,22.17
2018-11-25T11:47:38.485Z,23.83
2018-11-25T11:50:05.910Z,25.03
2018-11-25T11:52:33.407Z,25.03
2018-11-25T11:55:00.853Z,26.27
2018-11-25T11:57:28.321Z,23.70
2018-11-25T11:59:55.783Z,26.43
2018-11-25T12:02:23.202Z,24.60
2018-11-25T12:04:50.693Z,26.80
2018-11-25T12:07:18.114Z,23.87
2018-11-25T12:09:45.611Z,22.77
2018-11-25T12:12:13.023Z,23.30
2018-11-25T12:14:40.443Z,26.87
2018-11-25T12:17:07.890Z,23.90
2018-11-25T12:19:35.334Z,26.02
2018-11-25T12:22:02.769Z,24.73
2018-11-25T12:24:30.228Z,28.40
2018-11-25T12:26:57.833Z,21.50
2018-11-25T12:29:25.271Z,21.57
2018-11-25T12:31:52.706Z,26.07
2018-11-25T12:34:20.187Z,24.17
2018-11-25T12:36:47.614Z,21.57
2018-11-25T12:39:15.094Z,25.10
2018-11-25T12:41:42.512Z,23.77
2018-11-25T12:44:10.017Z,22.40
2018-11-25T12:46:37.474Z,23.53
2018-11-25T12:49:04.938Z,22.00
2018-11-25T12:51:32.386Z,22.63
2018-11-25T12:53:59.827Z,24.40
2018-11-25T12:56:27.730Z,22.47
2018-11-25T12:58:55.169Z,20.07
2018-11-25T13:01:22.734Z,19.80
2018-11-25T13:03:50.178Z,22.07
2018-11-25T13:06:17.652Z,23.70
2018-11-25T13:08:45.091Z,21.30
2018-11-25T13:11:12.535Z,20.97
2018-11-25T13:13:39.954Z,19.80
2018-11-25T13:16:07.368Z,22.10
2018-11-25T13:18:35.813Z,19.10
2018-11-25T13:21:02.260Z,20.13
2018-11-25T13:23:29.690Z,24.20
2018-11-25T13:25:57.118Z,20.60
2018-11-25T13:28:24.538Z,21.90
2018-11-25T13:30:51.972Z,19.53
2018-11-25T13:33:19.389Z,23.05
2018-11-25T13:35:46.831Z,18.03
2018-11-25T13:38:14.305Z,17.00
2018-11-25T13:40:41.726Z,19.83
2018-11-25T13:43:09.317Z,20.97
2018-11-25T13:45:36.766Z,19.93
2018-11-25T13:48:04.218Z,21.60
2018-11-25T13:50:31.647Z,19.60
2018-11-25T13:52:59.139Z,19.07
2018-11-25T13:55:26.567Z,19.67
2018-11-25T13:57:53.988Z,19.23
2018-11-25T14:00:21.414Z,19.40
2018-11-25T14:02:48.836Z,18.83
2018-11-25T14:05:16.267Z,23.20
2018-11-25T14:07:44.437Z,19.97
2018-11-25T14:10:11.960Z,21.87
2018-11-25T14:12:39.395Z,16.77
2018-11-25T14:15:06.813Z,18.62
2018-11-25T14:17:34.242Z,19.07
2018-11-25T14:20:01.662Z,19.45
2018-11-25T14:22:29.456Z,18.40
2018-11-25T14:24:56.875Z,17.43
2018-11-25T14:27:24.362Z,19.05
2018-11-25T14:29:51.819Z,18.03
2018-11-25T14:32:19.239Z,18.57
2018-11-25T14:34:46.707Z,19.80
2018-11-25T14:37:14.134Z,20.25
2018-11-25T14:39:41.563Z,20.43
2018-11-25T14:42:08.994Z,21.00
2018-11-25T14:44:36.406Z,16.43
2018-11-25T14:47:03.834Z,16.40
2018-11-25T14:49:31.376Z,16.80
2018-11-25T14:51:58.815Z,16.97
2018-11-25T14:54:26.303Z,17.83
2018-11-25T14:56:53.731Z,16.67
2018-11-25T14:59:21.163Z,17.50
2018-11-25T15:01:48.596Z,17.63
2018-11-25T15:04:16.115Z,17.12
2018-11-25T15:06:44.121Z,17.63
2018-11-25T15:09:11.541Z,17.17
2018-11-25T15:11:38.972Z,18.65
2018-11-25T15:14:06.399Z,16.57
2018-11-25T15:16:33.837Z,20.02
2018-11-25T15:19:01.274Z,20.00
2018-11-25T15:21:28.794Z,19.07
2018-11-25T15:23:56.290Z,20.80
2018-11-25T15:26:23.747Z,20.43
2018-11-25T15:28:51.175Z,20.40
2018-11-25T15:31:18.593Z,19.67
2018-11-25T15:33:46.012Z,21.37
2018-11-25T15:36:13.441Z,19.77
2018-11-25T15:38:40.872Z,16.42
2018-11-25T15:41:08.398Z,20.93
2018-11-25T15:43:35.810Z,21.70
2018-11-25T15:46:03.242Z,22.13
2018-11-25T15:48:30.660Z,24.00
2018-11-25T15:50:58.113Z,24.70
2018-11-25T15:53:25.574Z,21.30
2018-11-25T15:55:53.006Z,25.57
2018-11-25T15:58:21.148Z,24.53
2018-11-25T16:00:48.682Z,24.30
2018-11-25T16:03:16.117Z,25.00
2018-11-25T16:05:43.592Z,22.00
2018-11-25T16:08:11.085Z,21.63
2018-11-25T16:10:38.517Z,20.57
2018-11-25T16:13:05.915Z,21.97
2018-11-25T16:15:33.349Z,21.55
2018-11-25T16:18:00.785Z,20.87
2018-11-25T16:20:28.205Z,21.50
2018-11-25T16:22:55.625Z,20.30
2018-11-25T16:25:23.058Z,22.32
2018-11-25T16:27:50.477Z,21.40
2018-11-25T16:30:17.899Z,26.25
2018-11-25T16:32:45.782Z,24.57
2018-11-25T16:35:13.223Z,22.70
2018-11-25T16:37:40.743Z,26.15
2018-11-25T16:40:08.171Z,26.13
2018-11-25T16:42:35.686Z,24.92
2018-11-25T16:45:03.110Z,25.27
2018-11-25T16:47:30.579Z,23.03
2018-11-25T16:49:58.036Z,26.90
2018-11-25T16:52:25.586Z,22.53
2018-11-25T16:54:53.024Z,26.95
2018-11-25T16:57:20.456Z,24.43
2018-11-25T16:59:47.885Z,27.42
2018-11-25T17:02:15.298Z,30.20
2018-11-25T17:04:42.779Z,26.97
2018-11-25T17:07:10.233Z,25.57
2018-11-25T17:09:37.654Z,27.33
2018-11-25T17:12:05.073Z,32.17
2018-11-25T17:14:33.823Z,28.37
2018-11-25T17:17:00.024Z,26.02
2018-11-25T17:19:27.514Z,34.27
2018-11-25T17:21:54.951Z,28.87
2018-11-25T17:24:22.380Z,32.10
2018-11-25T17:26:49.798Z,27.90
2018-11-25T17:29:17.359Z,27.40
2018-11-25T17:31:44.782Z,28.63
2018-11-25T17:34:12.274Z,30.48
2018-11-25T17:36:39.723Z,32.53
2018-11-25T17:39:07.271Z,31.73
2018-11-25T17:41:34.729Z,32.95
2018-11-25T17:44:02.159Z,31.90
2018-11-25T17:46:29.659Z,32.85
2018-11-25T17:48:57.077Z,29.70
2018-11-25T17:51:24.570Z,32.80
2018-11-25T17:53:51.990Z,32.00
2018-11-25T17:56:19.462Z,32.20
2018-11-25T17:58:46.895Z,29.97
2018-11-25T18:01:14.390Z,28.80
2018-11-25T18:03:41.854Z,33.20
2018-11-25T18:06:09.277Z,31.67
2018-11-25T18:08:36.738Z,29.80
2018-11-25T18:11:04.161Z,32.70
2018-11-25T18:13:32.049Z,32.83
2018-11-25T18:15:59.499Z,28.60
2018-11-25T18:18:27.014Z,30.37
2018-11-25T18:20:54.467Z,27.67
2018-11-25T18:23:21.906Z,28.80
2018-11-25T18:25:49.334Z,31.83
2018-11-25T18:28:16.767Z,29.65
2018-11-25T18:30:44.176Z,27.07
2018-11-25T18:33:11.658Z,35.75
2018-11-25T18:35:39.084Z,31.53
2018-11-25T18:38:06.510Z,27.20
2018-11-25T18:40:33.931Z,33.97
2018-11-25T18:43:01.370Z,26.87
2018-11-25T18:45:28.834Z,30.13
2018-11-25T18:47:56.243Z,29.75
2018-11-25T18:50:23.665Z,30.20
2018-11-25T18:52:51.088Z,35.40
2018-11-25T18:55:18.509Z,38.90
2018-11-25T18:57:46.035Z,33.28
2018-11-25T19:00:13.457Z,33.67
2018-11-25T19:02:41.426Z,28.87
2018-11-25T19:05:08.846Z,36.77
2018-11-25T19:07:36.296Z,34.97
2018-11-25T19:10:03.723Z,31.77
2018-11-25T19:12:31.153Z,31.00
2018-11-25T19:14:58.569Z,30.17
2018-11-25T19:17:26.047Z,29.35
2018-11-25T19:19:53.555Z,32.87
2018-11-25T19:22:20.996Z,35.47
2018-11-25T19:24:48.415Z,34.93
2018-11-25T19:27:15.850Z,42.90
2018-11-25T19:29:43.283Z,40.12
2018-11-25T19:32:10.710Z,38.80
2018-11-25T19:34:38.135Z,41.28
2018-11-25T19:37:05.567Z,39.10
2018-11-25T19:39:32.991Z,43.15
2018-11-25T19:42:00.426Z,38.53
2018-11-25T19:44:27.850Z,37.75
2018-11-25T19:46:55.291Z,36.27
2018-11-25T19:49:22.717Z,36.75
2018-11-25T19:51:50.142Z,41.83
2018-11-25T19:54:17.583Z,36.42
2018-11-25T19:56:45.012Z,36.23
2018-11-25T19:59:12.452Z,42.25
2018-11-25T20:01:39.875Z,36.17
2018-11-25T20:04:07.311Z,41.85
2018-11-25T20:06:34.734Z,37.37
2018-11-25T20:09:02.168Z,38.42
2018-11-25T20:11:29.666Z,29.93
2018-11-25T20:13:57.095Z,35.52
2018-11-25T20:16:30.079Z,36.03
2018-11-25T20:18:57.513Z,33.30
2018-11-25T20:21:30.349Z,34.48
2018-11-25T20:23:57.769Z,36.13
2018-11-25T20:26:25.207Z,37.33
2018-11-25T20:28:52.650Z,38.83
2018-11-25T20:31:20.091Z,33.88
2018-11-25T20:33:52.173Z,31.53
2018-11-25T20:36:17.220Z,39.37
2018-11-25T20:38:50.090Z,35.38
2018-11-25T20:41:17.520Z,35.10
2018-11-25T20:43:44.938Z,35.03
2018-11-25T20:46:17.777Z,32.87
2018-11-25T20:48:45.211Z,31.73
2018-11-25T20:51:12.622Z,34.30
2018-11-25T20:53:45.342Z,30.60
2018-11-25T20:56:12.861Z,32.97
2018-11-25T20:58:40.320Z,35.40
2018-11-25T21:01:08.163Z,34.23
2018-11-25T21:03:35.599Z,33.33
2018-11-25T21:06:03.019Z,33.48
2018-11-25T21:08:30.452Z,32.30
2018-11-25T21:10:57.924Z,35.87
2018-11-25T21:13:25.383Z,33.53
2018-11-25T21:15:52.817Z,31.47
2018-11-25T21:18:20.300Z,35.23
2018-11-25T21:20:51.346Z,37.17
2018-11-25T21:23:15.215Z,38.08
2018-11-25T21:25:42.641Z,46.57
2018-11-25T21:28:10.088Z,48.93
2018-11-25T21:30:37.511Z,54.10
2018-11-25T21:33:04.943Z,48.93
2018-11-25T21:35:32.368Z,43.23
2018-11-25T21:37:59.794Z,39.40
2018-11-25T21:40:27.224Z,41.98
2018-11-25T21:42:54.699Z,35.77
2018-11-25T22:02:23.082Z,36.37
2018-11-25T22:04:50.509Z,37.73
2018-11-25T22:07:17.994Z,36.33
2018-11-25T22:09:45.435Z,36.75
2018-11-25T22:12:12.898Z,36.13
2018-11-25T22:14:40.399Z,36.00
2018-11-25T22:17:07.819Z,36.57
2018-11-25T22:19:35.265Z,36.58
2018-11-25T22:22:02.721Z,33.70
2018-11-25T22:24:30.154Z,32.73
2018-11-25T22:26:57.576Z,37.27
2018-11-25T22:29:24.998Z,38.20
2018-11-25T22:31:52.417Z,36.10
2018-11-25T22:34:19.854Z,37.20
2018-11-25T22:36:47.276Z,33.83
2018-11-25T22:39:14.718Z,31.37
2018-11-25T22:41:42.179Z,35.85
2018-11-25T22:44:09.620Z,33.07
2018-11-25T22:46:37.774Z,32.15
2018-11-25T22:49:05.206Z,38.03
2018-11-25T22:51:32.630Z,35.03
2018-11-25T22:54:00.056Z,39.03
2018-11-25T22:56:27.495Z,31.27
2018-11-25T22:58:54.918Z,31.50
2018-11-25T23:01:22.357Z,33.28
2018-11-25T23:03:49.786Z,29.10
2018-11-25T23:06:17.478Z,30.17
2018-11-25T23:08:44.914Z,30.53
2018-11-25T23:11:12.338Z,31.17
2018-11-25T23:13:39.848Z,36.03
2018-11-25T23:16:07.266Z,31.90
2018-11-25T23:18:34.698Z,33.50
2018-11-25T23:21:02.135Z,33.63
2018-11-25T23:23:29.559Z,32.78
2018-11-25T23:25:56.993Z,33.13
2018-11-25T23:28:24.499Z,32.23
2018-11-25T23:30:51.945Z,34.00
2018-11-25T23:33:19.504Z,35.83
2018-11-25T23:35:46.929Z,32.17
2018-11-25T23:38:14.417Z,35.13
2018-11-25T23:40:41.855Z,37.28
2018-11-25T23:43:09.327Z,36.13
2018-11-25T23:45:36.765Z,35.50
2018-11-25T23:48:04.280Z,32.10
2018-11-25T23:50:31.711Z,33.63
2018-11-25T23:52:59.196Z,36.68
2018-11-25T23:55:26.636Z,32.17
2018-11-25T23:57:54.067Z,35.70
